sensor_id;sensor_type;location;lat;lon;timestamp;pressure;altitude;pressure_sealevel;temperature;humidity
31096;BME280;17749;51.962;8.560;2023-07-29T05:02:25;99180.53;;;18.29;100.00
31096;BME280;17749;51.962;8.560;2023-07-29T05:04:53;99181.97;;;18.33;100.00
31096;BME280;17749;51.962;8.560;2023-07-29T05:07:21;99175.59;;;18.34;100.00
31096;BME280;17749;51.962;8.560;2023-07-29T05:09:48;99161.97;;;18.36;100.00
31096;BME280;17749;51.962;8.560;2023-07-29T05:12:15;99161.31;;;18.44;100.00
31096;BME280;17749;51.962;8.560;2023-07-29T05:14:43;99164.47;;;18.49;100.00
31096;BME280;17749;51.962;8.560;2023-07-29T05:17:09;99169.84;;;18.49;100.00
31096;BME280;17749;51.962;8.560;2023-07-29T05:19:36;99168.88;;;18.50;100.00
31096;BME280;17749;51.962;8.560;2023-07-29T05:22:04;99159.78;;;18.51;100.00
31096;BME280;17749;51.962;8.560;2023-07-29T05:24:31;99165.91;;;18.53;100.00
31096;BME280;17749;51.962;8.560;2023-07-29T05:26:58;99165.22;;;18.60;100.00
31096;BME280;17749;51.962;8.560;2023-07-29T05:29:25;99150.75;;;18.61;100.00
31096;BME280;17749;51.962;8.560;2023-07-29T05:31:52;99161.84;;;18.68;100.00
31096;BME280;17749;51.962;8.560;2023-07-29T05:34:19;99157.75;;;18.74;100.00
31096;BME280;17749;51.962;8.560;2023-07-29T05:36:46;99160.78;;;18.80;100.00
31096;BME280;17749;51.962;8.560;2023-07-29T05:39:13;99162.50;;;18.81;100.00
31096;BME280;17749;51.962;8.560;2023-07-29T05:41:41;99167.63;;;18.85;100.00
31096;BME280;17749;51.962;8.560;2023-07-29T05:44:07;99160.53;;;18.93;100.00
31096;BME280;17749;51.962;8.560;2023-07-29T05:46:36;99163.84;;;18.97;100.00
31096;BME280;17749;51.962;8.560;2023-07-29T05:49:04;99165.81;;;18.95;100.00
31096;BME280;17749;51.962;8.560;2023-07-29T05:51:31;99164.09;;;18.94;100.00
31096;BME280;17749;51.962;8.560;2023-07-29T05:53:58;99155.75;;;18.97;100.00
31096;BME280;17749;51.962;8.560;2023-07-29T05:56:25;99144.38;;;19.03;100.00
31096;BME280;17749;51.962;8.560;2023-07-29T05:58:52;99147.81;;;19.05;100.00
31096;BME280;17749;51.962;8.560;2023-07-29T06:01:19;99155.03;;;19.04;100.00
31096;BME280;17749;51.962;8.560;2023-07-29T06:03:48;99156.59;;;19.07;100.00
31096;BME280;17749;51.962;8.560;2023-07-29T06:06:16;99168.50;;;19.04;100.00
31096;BME280;17749;51.962;8.560;2023-07-29T06:08:43;99161.69;;;19.00;100.00
31096;BME280;17749;51.962;8.560;2023-07-29T06:11:09;99172.78;;;19.07;100.00
31096;BME280;17749;51.962;8.560;2023-07-29T06:13:37;99182.19;;;19.13;100.00
31096;BME280;17749;51.962;8.560;2023-07-29T06:16:04;99178.50;;;19.14;100.00
31096;BME280;17749;51.962;8.560;2023-07-29T06:18:31;99176.91;;;19.11;100.00
31096;BME280;17749;51.962;8.560;2023-07-29T06:20:58;99186.53;;;19.04;100.00
31096;BME280;17749;51.962;8.560;2023-07-29T06:23:25;99189.53;;;19.01;100.00
31096;BME280;17749;51.962;8.560;2023-07-29T06:25:53;99191.50;;;18.99;100.00
31096;BME280;17749;51.962;8.560;2023-07-29T06:28:20;99193.50;;;18.97;100.00
31096;BME280;17749;51.962;8.560;2023-07-29T06:30:47;99189.25;;;19.04;100.00
31096;BME280;17749;51.962;8.560;2023-07-29T06:33:14;99190.09;;;19.04;100.00
31096;BME280;17749;51.962;8.560;2023-07-29T06:35:41;99180.63;;;19.10;100.00
31096;BME280;17749;51.962;8.560;2023-07-29T06:38:08;99165.72;;;19.16;100.00
31096;BME280;17749;51.962;8.560;2023-07-29T06:40:35;99159.19;;;19.28;100.00
31096;BME280;17749;51.962;8.560;2023-07-29T06:43:02;99155.78;;;19.36;100.00
31096;BME280;17749;51.962;8.560;2023-07-29T06:45:30;99156.94;;;19.43;100.00
31096;BME280;17749;51.962;8.560;2023-07-29T06:47:57;99147.44;;;19.39;100.00
31096;BME280;17749;51.962;8.560;2023-07-29T06:50:24;99158.06;;;19.40;100.00
31096;BME280;17749;51.962;8.560;2023-07-29T06:52:51;99170.44;;;19.43;100.00
31096;BME280;17749;51.962;8.560;2023-07-29T06:55:18;99179.81;;;19.39;100.00
31096;BME280;17749;51.962;8.560;2023-07-29T06:57:46;99190.19;;;19.34;100.00
31096;BME280;17749;51.962;8.560;2023-07-29T07:00:13;99184.91;;;19.32;100.00
31096;BME280;17749;51.962;8.560;2023-07-29T07:02:40;99194.69;;;19.33;100.00
31096;BME280;17749;51.962;8.560;2023-07-29T07:05:08;99201.38;;;19.29;100.00
31096;BME280;17749;51.962;8.560;2023-07-29T07:07:35;99196.84;;;19.30;100.00
31096;BME280;17749;51.962;8.560;2023-07-29T07:10:03;99202.97;;;19.32;100.00
31096;BME280;17749;51.962;8.560;2023-07-29T07:12:29;99202.69;;;19.35;100.00
31096;BME280;17749;51.962;8.560;2023-07-29T07:14:56;99219.16;;;19.32;100.00
31096;BME280;17749;51.962;8.560;2023-07-29T07:17:24;99210.63;;;19.26;100.00
31096;BME280;17749;51.962;8.560;2023-07-29T07:19:51;99219.13;;;19.22;100.00
31096;BME280;17749;51.962;8.560;2023-07-29T07:22:18;99220.53;;;19.16;100.00
31096;BME280;17749;51.962;8.560;2023-07-29T07:24:45;99216.53;;;19.11;100.00
31096;BME280;17749;51.962;8.560;2023-07-29T07:27:13;99213.28;;;19.17;100.00
31096;BME280;17749;51.962;8.560;2023-07-29T07:29:40;99214.28;;;19.25;100.00
31096;BME280;17749;51.962;8.560;2023-07-29T07:32:07;99211.50;;;19.37;100.00
31096;BME280;17749;51.962;8.560;2023-07-29T07:34:35;99216.63;;;19.49;100.00
31096;BME280;17749;51.962;8.560;2023-07-29T07:37:02;99214.38;;;19.55;100.00
31096;BME280;17749;51.962;8.560;2023-07-29T07:39:31;99209.28;;;19.71;100.00
31096;BME280;17749;51.962;8.560;2023-07-29T07:41:58;99218.53;;;19.88;100.00
31096;BME280;17749;51.962;8.560;2023-07-29T07:44:25;99210.13;;;19.91;100.00
31096;BME280;17749;51.962;8.560;2023-07-29T07:46:53;99216.66;;;19.88;100.00
31096;BME280;17749;51.962;8.560;2023-07-29T07:49:23;99219.22;;;19.90;100.00
31096;BME280;17749;51.962;8.560;2023-07-29T07:51:50;99220.38;;;19.97;100.00
31096;BME280;17749;51.962;8.560;2023-07-29T07:54:17;99215.13;;;19.86;100.00
31096;BME280;17749;51.962;8.560;2023-07-29T07:56:45;99204.16;;;19.87;100.00
31096;BME280;17749;51.962;8.560;2023-07-29T07:59:11;99209.28;;;20.00;100.00
31096;BME280;17749;51.962;8.560;2023-07-29T08:01:41;99201.59;;;20.15;100.00
31096;BME280;17749;51.962;8.560;2023-07-29T08:04:08;99194.41;;;20.43;100.00
31096;BME280;17749;51.962;8.560;2023-07-29T08:06:35;99199.09;;;20.61;100.00
31096;BME280;17749;51.962;8.560;2023-07-29T08:09:02;99199.06;;;20.70;100.00
31096;BME280;17749;51.962;8.560;2023-07-29T08:11:30;99198.59;;;20.75;100.00
31096;BME280;17749;51.962;8.560;2023-07-29T08:13:58;99194.09;;;20.56;100.00
31096;BME280;17749;51.962;8.560;2023-07-29T08:16:25;99192.41;;;20.45;100.00
31096;BME280;17749;51.962;8.560;2023-07-29T08:18:53;99192.75;;;20.23;100.00
31096;BME280;17749;51.962;8.560;2023-07-29T08:21:20;99197.16;;;20.24;100.00
31096;BME280;17749;51.962;8.560;2023-07-29T08:23:47;99191.88;;;20.32;100.00
31096;BME280;17749;51.962;8.560;2023-07-29T08:26:14;99199.13;;;20.31;100.00
31096;BME280;17749;51.962;8.560;2023-07-29T08:28:41;99207.78;;;20.35;100.00
31096;BME280;17749;51.962;8.560;2023-07-29T08:31:08;99199.22;;;20.49;100.00
31096;BME280;17749;51.962;8.560;2023-07-29T08:33:35;99204.91;;;20.66;100.00
31096;BME280;17749;51.962;8.560;2023-07-29T08:36:03;99207.72;;;20.74;100.00
31096;BME280;17749;51.962;8.560;2023-07-29T08:38:30;99202.31;;;20.74;100.00
31096;BME280;17749;51.962;8.560;2023-07-29T08:43:38;99213.09;;;20.84;100.00
31096;BME280;17749;51.962;8.560;2023-07-29T08:46:06;99206.72;;;21.02;100.00
31096;BME280;17749;51.962;8.560;2023-07-29T08:48:40;99200.63;;;21.28;100.00
31096;BME280;17749;51.962;8.560;2023-07-29T08:51:09;99204.22;;;21.19;100.00
31096;BME280;17749;51.962;8.560;2023-07-29T08:53:37;99198.13;;;21.17;100.00
31096;BME280;17749;51.962;8.560;2023-07-29T08:56:06;99200.69;;;21.46;100.00
31096;BME280;17749;51.962;8.560;2023-07-29T08:58:34;99198.28;;;21.61;100.00
31096;BME280;17749;51.962;8.560;2023-07-29T09:01:02;99202.38;;;22.01;100.00
31096;BME280;17749;51.962;8.560;2023-07-29T09:03:29;99197.59;;;22.39;100.00
31096;BME280;17749;51.962;8.560;2023-07-29T09:05:58;99197.53;;;22.83;100.00
31096;BME280;17749;51.962;8.560;2023-07-29T09:08:26;99200.25;;;23.17;100.00
31096;BME280;17749;51.962;8.560;2023-07-29T09:10:54;99203.09;;;23.07;100.00
31096;BME280;17749;51.962;8.560;2023-07-29T09:13:25;99193.88;;;23.00;100.00
31096;BME280;17749;51.962;8.560;2023-07-29T09:15:57;99189.16;;;23.10;100.00
31096;BME280;17749;51.962;8.560;2023-07-29T09:18:26;99194.59;;;23.10;100.00
31096;BME280;17749;51.962;8.560;2023-07-29T09:20:53;99195.16;;;23.14;100.00
31096;BME280;17749;51.962;8.560;2023-07-29T09:23:21;99194.41;;;23.54;100.00
31096;BME280;17749;51.962;8.560;2023-07-29T09:25:48;99200.91;;;24.02;100.00
31096;BME280;17749;51.962;8.560;2023-07-29T09:28:16;99192.78;;;24.27;100.00
31096;BME280;17749;51.962;8.560;2023-07-29T09:30:46;99199.56;;;24.39;100.00
31096;BME280;17749;51.962;8.560;2023-07-29T09:33:13;99206.34;;;24.35;100.00
31096;BME280;17749;51.962;8.560;2023-07-29T09:35:41;99201.25;;;24.32;100.00
31096;BME280;17749;51.962;8.560;2023-07-29T09:38:14;99209.59;;;24.06;100.00
31096;BME280;17749;51.962;8.560;2023-07-29T09:40:42;99203.63;;;23.94;100.00
31096;BME280;17749;51.962;8.560;2023-07-29T09:43:12;99207.03;;;23.96;100.00
31096;BME280;17749;51.962;8.560;2023-07-29T09:45:39;99209.06;;;24.43;100.00
31096;BME280;17749;51.962;8.560;2023-07-29T09:48:06;99213.00;;;24.16;100.00
31096;BME280;17749;51.962;8.560;2023-07-29T09:50:36;99209.75;;;23.88;100.00
31096;BME280;17749;51.962;8.560;2023-07-29T09:53:03;99206.94;;;23.47;100.00
31096;BME280;17749;51.962;8.560;2023-07-29T09:55:33;99209.66;;;23.47;100.00
31096;BME280;17749;51.962;8.560;2023-07-29T09:58:01;99211.72;;;23.53;100.00
31096;BME280;17749;51.962;8.560;2023-07-29T10:00:31;99213.03;;;23.33;100.00
31096;BME280;17749;51.962;8.560;2023-07-29T10:02:59;99211.56;;;23.04;100.00
31096;BME280;17749;51.962;8.560;2023-07-29T10:05:28;99214.72;;;23.34;100.00
31096;BME280;17749;51.962;8.560;2023-07-29T10:07:56;99210.72;;;23.62;100.00
31096;BME280;17749;51.962;8.560;2023-07-29T10:10:24;99205.00;;;23.74;100.00
31096;BME280;17749;51.962;8.560;2023-07-29T10:12:51;99200.91;;;23.86;100.00
31096;BME280;17749;51.962;8.560;2023-07-29T10:15:20;99204.50;;;24.27;100.00
31096;BME280;17749;51.962;8.560;2023-07-29T10:17:48;99200.59;;;24.05;100.00
31096;BME280;17749;51.962;8.560;2023-07-29T10:20:17;99196.16;;;24.04;100.00
31096;BME280;17749;51.962;8.560;2023-07-29T10:22:46;99193.47;;;24.21;100.00
31096;BME280;17749;51.962;8.560;2023-07-29T10:25:19;99200.56;;;24.38;100.00
31096;BME280;17749;51.962;8.560;2023-07-29T10:28:17;99193.09;;;24.40;100.00
31096;BME280;17749;51.962;8.560;2023-07-29T10:30:47;99200.91;;;24.52;100.00
31096;BME280;17749;51.962;8.560;2023-07-29T10:33:14;99201.59;;;24.37;100.00
31096;BME280;17749;51.962;8.560;2023-07-29T10:35:42;99200.59;;;24.14;100.00
31096;BME280;17749;51.962;8.560;2023-07-29T10:38:09;99205.34;;;24.12;100.00
31096;BME280;17749;51.962;8.560;2023-07-29T10:40:50;99192.41;;;24.30;100.00
31096;BME280;17749;51.962;8.560;2023-07-29T10:43:26;99197.53;;;24.00;100.00
31096;BME280;17749;51.962;8.560;2023-07-29T10:45:57;99199.56;;;23.98;100.00
31096;BME280;17749;51.962;8.560;2023-07-29T10:48:43;99201.78;;;24.03;100.00
31096;BME280;17749;51.962;8.560;2023-07-29T10:56:27;99203.50;;;24.45;100.00
31096;BME280;17749;51.962;8.560;2023-07-29T10:58:56;99199.22;;;24.59;100.00
31096;BME280;17749;51.962;8.560;2023-07-29T11:01:31;99199.13;;;24.83;100.00
31096;BME280;17749;51.962;8.560;2023-07-29T11:04:25;99201.06;;;25.14;100.00
31096;BME280;17749;51.962;8.560;2023-07-29T11:09:54;99203.28;;;24.38;100.00
31096;BME280;17749;51.962;8.560;2023-07-29T11:12:49;99191.41;;;24.56;100.00
31096;BME280;17749;51.962;8.560;2023-07-29T11:15:24;99185.88;;;24.80;100.00
31096;BME280;17749;51.962;8.560;2023-07-29T11:18:00;99194.00;;;24.88;100.00
31096;BME280;17749;51.962;8.560;2023-07-29T11:20:29;99198.38;;;25.06;100.00
31096;BME280;17749;51.962;8.560;2023-07-29T11:22:57;99189.16;;;25.07;100.00
31096;BME280;17749;51.962;8.560;2023-07-29T11:25:26;99192.94;;;25.06;100.00
31096;BME280;17749;51.962;8.560;2023-07-29T11:27:55;99193.13;;;24.96;100.00
31096;BME280;17749;51.962;8.560;2023-07-29T11:30:22;99190.97;;;25.31;100.00
31096;BME280;17749;51.962;8.560;2023-07-29T11:32:50;99186.72;;;25.28;100.00
31096;BME280;17749;51.962;8.560;2023-07-29T11:35:18;99180.00;;;25.08;100.00
31096;BME280;17749;51.962;8.560;2023-07-29T11:37:47;99188.84;;;25.10;100.00
31096;BME280;17749;51.962;8.560;2023-07-29T11:40:20;99193.59;;;25.16;100.00
31096;BME280;17749;51.962;8.560;2023-07-29T11:42:49;99183.06;;;24.97;100.00
31096;BME280;17749;51.962;8.560;2023-07-29T11:45:20;99179.78;;;24.70;100.00
31096;BME280;17749;51.962;8.560;2023-07-29T11:47:49;99177.41;;;24.67;100.00
31096;BME280;17749;51.962;8.560;2023-07-29T11:50:17;99179.81;;;24.62;100.00
31096;BME280;17749;51.962;8.560;2023-07-29T11:52:45;99173.31;;;24.71;100.00
31096;BME280;17749;51.962;8.560;2023-07-29T11:55:15;99177.06;;;24.70;100.00
31096;BME280;17749;51.962;8.560;2023-07-29T11:57:43;99173.97;;;24.73;100.00
31096;BME280;17749;51.962;8.560;2023-07-29T12:00:11;99176.41;;;24.60;100.00
31096;BME280;17749;51.962;8.560;2023-07-29T12:02:43;99178.78;;;24.55;100.00
31096;BME280;17749;51.962;8.560;2023-07-29T12:05:13;99178.97;;;24.53;100.00
31096;BME280;17749;51.962;8.560;2023-07-29T12:07:42;99172.50;;;24.54;100.00
31096;BME280;17749;51.962;8.560;2023-07-29T12:10:10;99185.09;;;24.39;100.00
31096;BME280;17749;51.962;8.560;2023-07-29T12:12:44;99189.00;;;24.28;100.00
31096;BME280;17749;51.962;8.560;2023-07-29T12:15:11;99189.03;;;24.20;100.00
31096;BME280;17749;51.962;8.560;2023-07-29T12:17:41;99181.53;;;24.46;100.00
31096;BME280;17749;51.962;8.560;2023-07-29T12:20:09;99182.22;;;24.40;100.00
31096;BME280;17749;51.962;8.560;2023-07-29T12:22:37;99179.66;;;24.55;100.00
31096;BME280;17749;51.962;8.560;2023-07-29T12:25:04;99186.75;;;24.73;100.00
31096;BME280;17749;51.962;8.560;2023-07-29T12:27:31;99183.34;;;24.70;100.00
31096;BME280;17749;51.962;8.560;2023-07-29T12:30:01;99173.97;;;24.73;100.00
31096;BME280;17749;51.962;8.560;2023-07-29T12:32:30;99178.78;;;24.55;100.00
31096;BME280;17749;51.962;8.560;2023-07-29T12:34:57;99184.59;;;24.52;100.00
31096;BME280;17749;51.962;8.560;2023-07-29T12:37:31;99180.69;;;24.30;100.00
31096;BME280;17749;51.962;8.560;2023-07-29T12:39:59;99193.63;;;24.19;100.00
31096;BME280;17749;51.962;8.560;2023-07-29T12:42:26;99195.16;;;23.97;100.00
31096;BME280;17749;51.962;8.560;2023-07-29T12:44:54;99186.63;;;23.84;100.00
31096;BME280;17749;51.962;8.560;2023-07-29T12:47:21;99191.88;;;23.61;100.00
31096;BME280;17749;51.962;8.560;2023-07-29T12:49:48;99190.84;;;23.62;100.00
31096;BME280;17749;51.962;8.560;2023-07-29T12:52:15;99182.88;;;23.69;100.00
31096;BME280;17749;51.962;8.560;2023-07-29T12:54:41;99177.41;;;23.52;100.00
31096;BME280;17749;51.962;8.560;2023-07-29T12:57:11;99177.41;;;23.52;100.00
31096;BME280;17749;51.962;8.560;2023-07-29T12:59:38;99175.03;;;23.57;100.00
31096;BME280;17749;51.962;8.560;2023-07-29T13:02:05;99173.69;;;23.53;100.00
31096;BME280;17749;51.962;8.560;2023-07-29T13:04:34;99170.59;;;23.32;100.00
31096;BME280;17749;51.962;8.560;2023-07-29T13:07:01;99169.06;;;23.37;100.00
31096;BME280;17749;51.962;8.560;2023-07-29T13:09:27;99175.72;;;23.51;100.00
31096;BME280;17749;51.962;8.560;2023-07-29T13:11:54;99162.50;;;23.89;100.00
31096;BME280;17749;51.962;8.560;2023-07-29T13:14:21;99160.78;;;24.37;100.00
31096;BME280;17749;51.962;8.560;2023-07-29T13:16:49;99168.56;;;24.65;100.00
31096;BME280;17749;51.962;8.560;2023-07-29T13:19:16;99172.44;;;24.79;100.00
31096;BME280;17749;51.962;8.560;2023-07-29T13:21:43;99183.66;;;24.84;100.00
31096;BME280;17749;51.962;8.560;2023-07-29T13:24:09;99178.00;;;24.93;100.00
31096;BME280;17749;51.962;8.560;2023-07-29T13:26:37;99171.25;;;24.73;100.00
31096;BME280;17749;51.962;8.560;2023-07-29T13:29:04;99176.41;;;24.60;100.00
31096;BME280;17749;51.962;8.560;2023-07-29T13:31:35;99175.94;;;24.32;100.00
31096;BME280;17749;51.962;8.560;2023-07-29T13:34:02;99184.97;;;24.24;100.00
31096;BME280;17749;51.962;8.560;2023-07-29T13:36:29;99183.25;;;24.15;100.00
31096;BME280;17749;51.962;8.560;2023-07-29T13:38:56;99179.84;;;23.96;100.00
31096;BME280;17749;51.962;8.560;2023-07-29T13:41:23;99183.44;;;23.89;100.00
31096;BME280;17749;51.962;8.560;2023-07-29T13:43:50;99184.94;;;23.91;100.00
31096;BME280;17749;51.962;8.560;2023-07-29T13:46:17;99185.63;;;23.85;100.00
31096;BME280;17749;51.962;8.560;2023-07-29T13:48:47;99192.41;;;23.81;100.00
31096;BME280;17749;51.962;8.560;2023-07-29T13:51:14;99191.75;;;23.79;100.00
31096;BME280;17749;51.962;8.560;2023-07-29T13:53:41;99185.97;;;23.82;100.00
31096;BME280;17749;51.962;8.560;2023-07-29T13:56:08;99184.28;;;23.97;100.00
31096;BME280;17749;51.962;8.560;2023-07-29T13:58:35;99183.09;;;24.24;100.00
31096;BME280;17749;51.962;8.560;2023-07-29T14:01:02;99187.81;;;24.47;100.00
31096;BME280;17749;51.962;8.560;2023-07-29T14:03:29;99177.56;;;24.74;100.00
31096;BME280;17749;51.962;8.560;2023-07-29T14:05:56;99178.25;;;24.67;100.00
31096;BME280;17749;51.962;8.560;2023-07-29T14:08:23;99170.41;;;24.73;100.00
31096;BME280;17749;51.962;8.560;2023-07-29T14:10:50;99182.78;;;24.83;100.00
31096;BME280;17749;51.962;8.560;2023-07-29T14:13:17;99171.13;;;25.06;100.00
31096;BME280;17749;51.962;8.560;2023-07-29T14:15:44;99176.91;;;25.19;100.00
31096;BME280;17749;51.962;8.560;2023-07-29T14:18:11;99187.06;;;25.25;100.00
31096;BME280;17749;51.962;8.560;2023-07-29T14:20:38;99176.06;;;25.10;100.00
31096;BME280;17749;51.962;8.560;2023-07-29T14:23:05;99169.81;;;24.93;100.00
31096;BME280;17749;51.962;8.560;2023-07-29T14:25:32;99180.03;;;24.91;100.00
31096;BME280;17749;51.962;8.560;2023-07-29T14:27:59;99181.06;;;24.90;100.00
31096;BME280;17749;51.962;8.560;2023-07-29T14:30:26;99185.91;;;24.72;100.00
31096;BME280;17749;51.962;8.560;2023-07-29T14:32:53;99184.88;;;24.65;100.00
31096;BME280;17749;51.962;8.560;2023-07-29T14:35:21;99185.94;;;24.56;100.00
31096;BME280;17749;51.962;8.560;2023-07-29T14:37:48;99188.53;;;24.24;100.00
31096;BME280;17749;51.962;8.560;2023-07-29T14:40:15;99200.44;;;24.23;100.00
31096;BME280;17749;51.962;8.560;2023-07-29T14:42:42;99203.63;;;24.02;100.00
31096;BME280;17749;51.962;8.560;2023-07-29T14:45:09;99208.91;;;23.88;100.00
31096;BME280;17749;51.962;8.560;2023-07-29T14:47:36;99202.28;;;23.74;100.00
31096;BME280;17749;51.962;8.560;2023-07-29T14:50:03;99210.38;;;23.66;100.00
31096;BME280;17749;51.962;8.560;2023-07-29T14:52:30;99211.38;;;23.56;100.00
31096;BME280;17749;51.962;8.560;2023-07-29T14:54:57;99209.50;;;23.57;100.00
31096;BME280;17749;51.962;8.560;2023-07-29T14:57:24;99208.16;;;23.53;100.00
31096;BME280;17749;51.962;8.560;2023-07-29T14:59:51;99206.94;;;23.47;100.00
31096;BME280;17749;51.962;8.560;2023-07-29T15:02:18;99219.16;;;23.43;100.00
31096;BME280;17749;51.962;8.560;2023-07-29T15:04:46;99223.75;;;23.34;100.00
31096;BME280;17749;51.962;8.560;2023-07-29T15:07:12;99213.00;;;23.25;100.00
31096;BME280;17749;51.962;8.560;2023-07-29T15:09:40;99205.81;;;23.15;100.00
31096;BME280;17749;51.962;8.560;2023-07-29T15:12:07;99210.34;;;22.99;100.00
31096;BME280;17749;51.962;8.560;2023-07-29T15:14:34;99212.63;;;22.85;100.00
31096;BME280;17749;51.962;8.560;2023-07-29T15:17:02;99212.75;;;22.75;100.00
31096;BME280;17749;51.962;8.560;2023-07-29T15:19:29;99214.53;;;22.59;100.00
31096;BME280;17749;51.962;8.560;2023-07-29T15:21:57;99221.75;;;22.50;100.00
31096;BME280;17749;51.962;8.560;2023-07-29T15:24:24;99225.94;;;22.44;100.00
31096;BME280;17749;51.962;8.560;2023-07-29T15:26:51;99236.28;;;22.41;100.00
31096;BME280;17749;51.962;8.560;2023-07-29T15:29:18;99243.91;;;22.19;100.00
31096;BME280;17749;51.962;8.560;2023-07-29T15:31:46;99247.91;;;22.15;100.00
31096;BME280;17749;51.962;8.560;2023-07-29T15:34:13;99248.81;;;22.06;100.00
31096;BME280;17749;51.962;8.560;2023-07-29T15:36:40;99262.22;;;21.89;100.00
31096;BME280;17749;51.962;8.560;2023-07-29T15:39:08;99270.03;;;21.57;100.00
31096;BME280;17749;51.962;8.560;2023-07-29T15:41:35;99298.66;;;21.22;100.00
31096;BME280;17749;51.962;8.560;2023-07-29T15:44:01;99316.28;;;20.98;100.00
31096;BME280;17749;51.962;8.560;2023-07-29T15:46:28;99333.91;;;20.55;100.00
31096;BME280;17749;51.962;8.560;2023-07-29T15:48:55;99333.59;;;20.20;100.00
31096;BME280;17749;51.962;8.560;2023-07-29T15:51:26;99325.03;;;19.95;100.00
31096;BME280;17749;51.962;8.560;2023-07-29T15:53:53;99333.72;;;19.89;100.00
31096;BME280;17749;51.962;8.560;2023-07-29T15:56:21;99324.09;;;19.65;100.00
31096;BME280;17749;51.962;8.560;2023-07-29T15:58:48;99328.03;;;19.52;100.00
31096;BME280;17749;51.962;8.560;2023-07-29T16:01:15;99324.88;;;19.46;100.00
31096;BME280;17749;51.962;8.560;2023-07-29T16:03:42;99329.44;;;19.46;100.00
31096;BME280;17749;51.962;8.560;2023-07-29T16:06:09;99335.66;;;19.37;100.00
31096;BME280;17749;51.962;8.560;2023-07-29T16:08:36;99328.31;;;19.39;100.00
31096;BME280;17749;51.962;8.560;2023-07-29T16:11:03;99324.94;;;19.56;100.00
31096;BME280;17749;51.962;8.560;2023-07-29T16:13:30;99329.25;;;19.68;100.00
31096;BME280;17749;51.962;8.560;2023-07-29T16:15:57;99319.91;;;19.82;100.00
31096;BME280;17749;51.962;8.560;2023-07-29T16:18:25;99313.38;;;19.95;100.00
31096;BME280;17749;51.962;8.560;2023-07-29T16:20:52;99305.97;;;20.06;100.00
31096;BME280;17749;51.962;8.560;2023-07-29T16:23:19;99307.13;;;20.13;100.00
31096;BME280;17749;51.962;8.560;2023-07-29T16:25:46;99305.56;;;20.01;100.00
31096;BME280;17749;51.962;8.560;2023-07-29T16:28:13;99300.56;;;20.06;100.00
31096;BME280;17749;51.962;8.560;2023-07-29T16:30:41;99298.59;;;20.08;100.00
31096;BME280;17749;51.962;8.560;2023-07-29T16:33:08;99301.00;;;20.11;100.00
31096;BME280;17749;51.962;8.560;2023-07-29T16:35:35;99295.75;;;20.10;100.00
31096;BME280;17749;51.962;8.560;2023-07-29T16:38:05;99288.34;;;20.22;100.00
31096;BME280;17749;51.962;8.560;2023-07-29T16:40:32;99287.66;;;20.10;100.00
31096;BME280;17749;51.962;8.560;2023-07-29T16:43:00;99298.00;;;19.85;100.00
31096;BME280;17749;51.962;8.560;2023-07-29T16:45:27;99281.88;;;19.64;100.00
31096;BME280;17749;51.962;8.560;2023-07-29T16:47:54;99278.38;;;19.74;100.00
31096;BME280;17749;51.962;8.560;2023-07-29T16:50:22;99284.22;;;19.88;100.00
31096;BME280;17749;51.962;8.560;2023-07-29T16:52:49;99290.50;;;19.89;100.00
31096;BME280;17749;51.962;8.560;2023-07-29T16:55:20;99298.25;;;19.73;100.00
31096;BME280;17749;51.962;8.560;2023-07-29T16:57:47;99300.13;;;19.72;100.00
31096;BME280;17749;51.962;8.560;2023-07-29T17:00:14;99285.19;;;19.68;100.00
31096;BME280;17749;51.962;8.560;2023-07-29T17:02:41;99286.84;;;19.59;100.00
31096;BME280;17749;51.962;8.560;2023-07-29T17:05:08;99279.03;;;19.56;100.00
31096;BME280;17749;51.962;8.560;2023-07-29T17:07:35;99276.28;;;19.46;100.00
31096;BME280;17749;51.962;8.560;2023-07-29T17:10:03;99279.44;;;19.42;100.00
31096;BME280;17749;51.962;8.560;2023-07-29T17:12:30;99279.94;;;19.36;100.00
31096;BME280;17749;51.962;8.560;2023-07-29T17:17:35;99272.81;;;19.15;100.00
31096;BME280;17749;51.962;8.560;2023-07-29T17:20:02;99278.00;;;19.07;100.00
31096;BME280;17749;51.962;8.560;2023-07-29T17:22:30;99280.41;;;19.00;100.00
31096;BME280;17749;51.962;8.560;2023-07-29T17:25:02;99283.22;;;18.99;100.00
31096;BME280;17749;51.962;8.560;2023-07-29T17:27:29;99288.91;;;18.96;100.00
31096;BME280;17749;51.962;8.560;2023-07-29T17:29:56;99283.72;;;18.83;100.00
31096;BME280;17749;51.962;8.560;2023-07-29T17:32:22;99278.94;;;18.87;100.00
31096;BME280;17749;51.962;8.560;2023-07-29T17:34:50;99283.91;;;18.91;100.00
31096;BME280;17749;51.962;8.560;2023-07-29T17:37:17;99282.09;;;18.92;100.00
31096;BME280;17749;51.962;8.560;2023-07-29T17:39:44;99280.63;;;18.88;100.00
31096;BME280;17749;51.962;8.560;2023-07-29T17:42:10;99281.88;;;18.83;100.00
31096;BME280;17749;51.962;8.560;2023-07-29T17:44:37;99281.34;;;18.90;100.00
31096;BME280;17749;51.962;8.560;2023-07-29T17:47:05;99280.34;;;18.91;100.00
31096;BME280;17749;51.962;8.560;2023-07-29T17:49:32;99285.75;;;18.91;100.00
31096;BME280;17749;51.962;8.560;2023-07-29T17:51:59;99293.22;;;18.77;100.00
31096;BME280;17749;51.962;8.560;2023-07-29T17:54:26;99300.44;;;18.77;100.00
31096;BME280;17749;51.962;8.560;2023-07-29T17:56:53;99299.50;;;18.67;100.00
31096;BME280;17749;51.962;8.560;2023-07-29T17:59:20;99313.06;;;18.55;100.00
31096;BME280;17749;51.962;8.560;2023-07-29T18:01:47;99305.91;;;18.45;100.00
31096;BME280;17749;51.962;8.560;2023-07-29T18:04:16;99314.22;;;18.42;100.00
31096;BME280;17749;51.962;8.560;2023-07-29T18:06:43;99313.53;;;18.39;100.00
31096;BME280;17749;51.962;8.560;2023-07-29T18:09:10;99314.38;;;18.40;100.00